sensor_id;sensor_type;location;lat;lon;timestamp;temperature;humidity
59961;DHT22;55902;-37.980;-63.602;2023-06-05T00:00:32;7.70;65.60
59961;DHT22;55902;-37.980;-63.602;2023-06-05T00:02:59;7.70;64.90
59961;DHT22;55902;-37.980;-63.602;2023-06-05T00:15:52;7.50;64.90
59961;DHT22;55902;-37.980;-63.602;2023-06-05T00:18:20;7.50;63.10
59961;DHT22;55902;-37.980;-63.602;2023-06-05T00:20:47;7.50;65.70
59961;DHT22;55902;-37.980;-63.602;2023-06-05T00:23:14;7.50;66.00
59961;DHT22;55902;-37.980;-63.602;2023-06-05T00:25:41;7.40;67.30
59961;DHT22;55902;-37.980;-63.602;2023-06-05T00:28:08;7.40;66.10
59961;DHT22;55902;-37.980;-63.602;2023-06-05T00:30:35;7.30;65.10
59961;DHT22;55902;-37.980;-63.602;2023-06-05T00:33:03;7.30;64.60
59961;DHT22;55902;-37.980;-63.602;2023-06-05T00:35:31;7.20;67.40
59961;DHT22;55902;-37.980;-63.602;2023-06-05T00:37:58;7.10;67.30
59961;DHT22;55902;-37.980;-63.602;2023-06-05T00:40:25;7.10;66.90
59961;DHT22;55902;-37.980;-63.602;2023-06-05T00:42:52;7.00;66.70
59961;DHT22;55902;-37.980;-63.602;2023-06-05T00:45:19;6.90;65.10
59961;DHT22;55902;-37.980;-63.602;2023-06-05T00:47:47;6.90;65.90
59961;DHT22;55902;-37.980;-63.602;2023-06-05T00:50:14;6.80;65.20
59961;DHT22;55902;-37.980;-63.602;2023-06-05T00:52:42;6.80;66.70
59961;DHT22;55902;-37.980;-63.602;2023-06-05T01:05:19;6.50;67.20
59961;DHT22;55902;-37.980;-63.602;2023-06-05T01:07:46;6.40;68.20
59961;DHT22;55902;-37.980;-63.602;2023-06-05T01:10:17;6.30;67.90
59961;DHT22;55902;-37.980;-63.602;2023-06-05T01:15:36;6.20;68.50
59961;DHT22;55902;-37.980;-63.602;2023-06-05T01:18:04;6.20;67.20
59961;DHT22;55902;-37.980;-63.602;2023-06-05T01:20:41;6.20;67.50
59961;DHT22;55902;-37.980;-63.602;2023-06-05T01:23:09;6.20;69.00
59961;DHT22;55902;-37.980;-63.602;2023-06-05T01:25:36;6.20;67.90
59961;DHT22;55902;-37.980;-63.602;2023-06-05T01:28:22;6.30;66.90
59961;DHT22;55902;-37.980;-63.602;2023-06-05T01:33:31;6.40;67.30
59961;DHT22;55902;-37.980;-63.602;2023-06-05T01:36:11;6.40;66.90
59961;DHT22;55902;-37.980;-63.602;2023-06-05T01:38:41;6.40;66.80
59961;DHT22;55902;-37.980;-63.602;2023-06-05T01:41:10;6.50;66.80
59961;DHT22;55902;-37.980;-63.602;2023-06-05T01:43:38;6.50;68.20
59961;DHT22;55902;-37.980;-63.602;2023-06-05T01:56:16;6.20;68.70
59961;DHT22;55902;-37.980;-63.602;2023-06-05T01:58:47;6.10;67.90
59961;DHT22;55902;-37.980;-63.602;2023-06-05T02:01:14;6.10;67.50
59961;DHT22;55902;-37.980;-63.602;2023-06-05T02:03:42;6.00;69.10
59961;DHT22;55902;-37.980;-63.602;2023-06-05T02:06:17;6.00;69.40
59961;DHT22;55902;-37.980;-63.602;2023-06-05T02:08:44;6.00;68.80
59961;DHT22;55902;-37.980;-63.602;2023-06-05T02:11:11;6.00;68.70
59961;DHT22;55902;-37.980;-63.602;2023-06-05T02:13:39;6.00;68.30
59961;DHT22;55902;-37.980;-63.602;2023-06-05T02:16:10;6.10;70.20
59961;DHT22;55902;-37.980;-63.602;2023-06-05T02:18:37;6.10;70.50
59961;DHT22;55902;-37.980;-63.602;2023-06-05T02:21:04;6.00;70.90
59961;DHT22;55902;-37.980;-63.602;2023-06-05T02:23:32;5.90;71.30
59961;DHT22;55902;-37.980;-63.602;2023-06-05T02:25:59;5.90;72.10
59961;DHT22;55902;-37.980;-63.602;2023-06-05T02:28:26;5.90;72.00
59961;DHT22;55902;-37.980;-63.602;2023-06-05T02:30:54;5.80;71.40
59961;DHT22;55902;-37.980;-63.602;2023-06-05T02:33:21;5.70;72.80
59961;DHT22;55902;-37.980;-63.602;2023-06-05T02:35:49;5.60;73.60
59961;DHT22;55902;-37.980;-63.602;2023-06-05T02:38:17;5.60;71.90
59961;DHT22;55902;-37.980;-63.602;2023-06-05T02:40:44;5.60;73.30
59961;DHT22;55902;-37.980;-63.602;2023-06-05T02:43:11;5.60;72.10
59961;DHT22;55902;-37.980;-63.602;2023-06-05T02:45:40;5.50;74.10
59961;DHT22;55902;-37.980;-63.602;2023-06-05T02:48:07;5.40;75.90
59961;DHT22;55902;-37.980;-63.602;2023-06-05T02:50:34;5.30;76.80
59961;DHT22;55902;-37.980;-63.602;2023-06-05T02:53:01;5.30;75.20
59961;DHT22;55902;-37.980;-63.602;2023-06-05T02:55:28;5.20;75.00
59961;DHT22;55902;-37.980;-63.602;2023-06-05T02:57:55;5.20;74.90
59961;DHT22;55902;-37.980;-63.602;2023-06-05T03:00:24;5.20;75.30
59961;DHT22;55902;-37.980;-63.602;2023-06-05T03:02:51;5.20;75.40
59961;DHT22;55902;-37.980;-63.602;2023-06-05T03:05:19;5.20;74.70
59961;DHT22;55902;-37.980;-63.602;2023-06-05T03:07:51;5.20;74.50
59961;DHT22;55902;-37.980;-63.602;2023-06-05T03:10:22;5.20;75.40
59961;DHT22;55902;-37.980;-63.602;2023-06-05T03:12:49;5.20;74.50
59961;DHT22;55902;-37.980;-63.602;2023-06-05T03:15:16;5.30;74.30
59961;DHT22;55902;-37.980;-63.602;2023-06-05T03:17:44;5.30;75.20
59961;DHT22;55902;-37.980;-63.602;2023-06-05T03:20:12;5.20;76.40
59961;DHT22;55902;-37.980;-63.602;2023-06-05T03:22:40;5.20;77.00
59961;DHT22;55902;-37.980;-63.602;2023-06-05T03:25:07;5.10;76.30
59961;DHT22;55902;-37.980;-63.602;2023-06-05T03:27:34;5.10;75.70
59961;DHT22;55902;-37.980;-63.602;2023-06-05T03:30:03;5.10;76.20
59961;DHT22;55902;-37.980;-63.602;2023-06-05T03:32:30;5.00;76.80
59961;DHT22;55902;-37.980;-63.602;2023-06-05T03:34:58;4.90;76.80
59961;DHT22;55902;-37.980;-63.602;2023-06-05T03:37:25;4.90;78.20
59961;DHT22;55902;-37.980;-63.602;2023-06-05T03:39:52;4.80;78.80
59961;DHT22;55902;-37.980;-63.602;2023-06-05T03:42:19;4.80;78.30
59961;DHT22;55902;-37.980;-63.602;2023-06-05T03:44:46;4.80;78.90
59961;DHT22;55902;-37.980;-63.602;2023-06-05T03:47:13;4.80;78.20
59961;DHT22;55902;-37.980;-63.602;2023-06-05T03:49:41;4.80;77.60
59961;DHT22;55902;-37.980;-63.602;2023-06-05T03:52:13;4.80;79.70
59961;DHT22;55902;-37.980;-63.602;2023-06-05T03:54:40;4.80;79.40
59961;DHT22;55902;-37.980;-63.602;2023-06-05T03:57:12;4.90;79.50
59961;DHT22;55902;-37.980;-63.602;2023-06-05T03:59:41;4.90;79.00
59961;DHT22;55902;-37.980;-63.602;2023-06-05T04:02:08;4.90;79.50
59961;DHT22;55902;-37.980;-63.602;2023-06-05T04:04:35;4.80;79.60
59961;DHT22;55902;-37.980;-63.602;2023-06-05T04:07:02;4.90;78.70
59961;DHT22;55902;-37.980;-63.602;2023-06-05T04:09:29;4.80;78.60
59961;DHT22;55902;-37.980;-63.602;2023-06-05T04:11:56;4.80;79.60
59961;DHT22;55902;-37.980;-63.602;2023-06-05T04:14:24;4.80;79.00
59961;DHT22;55902;-37.980;-63.602;2023-06-05T04:16:51;4.70;80.20
59961;DHT22;55902;-37.980;-63.602;2023-06-05T04:19:18;4.60;80.70
59961;DHT22;55902;-37.980;-63.602;2023-06-05T04:21:46;4.60;81.90
59961;DHT22;55902;-37.980;-63.602;2023-06-05T04:24:13;4.50;81.70
59961;DHT22;55902;-37.980;-63.602;2023-06-05T04:26:41;4.50;80.50
59961;DHT22;55902;-37.980;-63.602;2023-06-05T04:29:08;4.50;82.10
59961;DHT22;55902;-37.980;-63.602;2023-06-05T04:31:46;4.50;82.40
59961;DHT22;55902;-37.980;-63.602;2023-06-05T04:34:17;4.50;82.40
59961;DHT22;55902;-37.980;-63.602;2023-06-05T04:36:46;4.50;82.60
59961;DHT22;55902;-37.980;-63.602;2023-06-05T04:39:16;4.50;83.20
59961;DHT22;55902;-37.980;-63.602;2023-06-05T04:41:45;4.50;83.60
59961;DHT22;55902;-37.980;-63.602;2023-06-05T04:44:13;4.50;83.30
59961;DHT22;55902;-37.980;-63.602;2023-06-05T04:46:45;4.50;83.90
59961;DHT22;55902;-37.980;-63.602;2023-06-05T04:49:13;4.40;84.20
59961;DHT22;55902;-37.980;-63.602;2023-06-05T04:51:41;4.40;83.90
59961;DHT22;55902;-37.980;-63.602;2023-06-05T04:54:10;4.40;83.80
59961;DHT22;55902;-37.980;-63.602;2023-06-05T04:56:38;4.40;84.60
59961;DHT22;55902;-37.980;-63.602;2023-06-05T04:59:05;4.40;83.50
59961;DHT22;55902;-37.980;-63.602;2023-06-05T05:01:33;4.40;83.10
59961;DHT22;55902;-37.980;-63.602;2023-06-05T05:04:00;4.40;83.90
59961;DHT22;55902;-37.980;-63.602;2023-06-05T05:06:27;4.40;83.60
59961;DHT22;55902;-37.980;-63.602;2023-06-05T05:08:54;4.40;85.30
59961;DHT22;55902;-37.980;-63.602;2023-06-05T05:11:21;4.40;86.10
59961;DHT22;55902;-37.980;-63.602;2023-06-05T05:13:48;4.50;85.00
59961;DHT22;55902;-37.980;-63.602;2023-06-05T05:16:15;4.50;85.20
59961;DHT22;55902;-37.980;-63.602;2023-06-05T05:18:43;4.50;84.60
59961;DHT22;55902;-37.980;-63.602;2023-06-05T05:21:11;4.50;84.40
59961;DHT22;55902;-37.980;-63.602;2023-06-05T05:23:38;4.60;84.50
59961;DHT22;55902;-37.980;-63.602;2023-06-05T05:26:06;4.60;85.40
59961;DHT22;55902;-37.980;-63.602;2023-06-05T05:28:33;4.70;87.30
59961;DHT22;55902;-37.980;-63.602;2023-06-05T05:31:00;4.70;86.80
59961;DHT22;55902;-37.980;-63.602;2023-06-05T05:33:29;4.60;88.00
59961;DHT22;55902;-37.980;-63.602;2023-06-05T05:35:56;4.70;87.20
59961;DHT22;55902;-37.980;-63.602;2023-06-05T05:38:23;4.70;86.40
59961;DHT22;55902;-37.980;-63.602;2023-06-05T05:40:50;4.80;87.10
59961;DHT22;55902;-37.980;-63.602;2023-06-05T05:43:17;4.90;87.10
59961;DHT22;55902;-37.980;-63.602;2023-06-05T05:45:44;4.90;87.00
59961;DHT22;55902;-37.980;-63.602;2023-06-05T05:48:11;4.90;88.30
59961;DHT22;55902;-37.980;-63.602;2023-06-05T06:00:44;4.90;88.10
59961;DHT22;55902;-37.980;-63.602;2023-06-05T06:03:11;4.90;88.00
59961;DHT22;55902;-37.980;-63.602;2023-06-05T06:05:40;4.90;88.20
59961;DHT22;55902;-37.980;-63.602;2023-06-05T06:08:07;4.80;89.10
59961;DHT22;55902;-37.980;-63.602;2023-06-05T06:10:37;4.80;89.30
59961;DHT22;55902;-37.980;-63.602;2023-06-05T06:13:04;4.80;89.60
59961;DHT22;55902;-37.980;-63.602;2023-06-05T06:15:32;4.80;89.10
59961;DHT22;55902;-37.980;-63.602;2023-06-05T06:17:59;4.80;89.60
59961;DHT22;55902;-37.980;-63.602;2023-06-05T06:20:28;4.70;90.10
59961;DHT22;55902;-37.980;-63.602;2023-06-05T06:22:55;4.70;90.10
59961;DHT22;55902;-37.980;-63.602;2023-06-05T06:25:23;4.80;89.60
59961;DHT22;55902;-37.980;-63.602;2023-06-05T06:27:55;4.70;90.10
59961;DHT22;55902;-37.980;-63.602;2023-06-05T06:30:23;4.70;90.30
59961;DHT22;55902;-37.980;-63.602;2023-06-05T06:32:49;4.70;90.40
59961;DHT22;55902;-37.980;-63.602;2023-06-05T06:35:17;4.70;90.30
59961;DHT22;55902;-37.980;-63.602;2023-06-05T06:37:44;4.80;89.40
59961;DHT22;55902;-37.980;-63.602;2023-06-05T06:40:11;4.80;89.50
59961;DHT22;55902;-37.980;-63.602;2023-06-05T06:42:38;4.80;90.10
59961;DHT22;55902;-37.980;-63.602;2023-06-05T06:45:05;4.80;89.70
59961;DHT22;55902;-37.980;-63.602;2023-06-05T06:47:33;4.80;89.80
59961;DHT22;55902;-37.980;-63.602;2023-06-05T06:49:59;4.80;89.10
59961;DHT22;55902;-37.980;-63.602;2023-06-05T06:52:27;4.90;88.60
59961;DHT22;55902;-37.980;-63.602;2023-06-05T06:54:53;4.90;89.00
59961;DHT22;55902;-37.980;-63.602;2023-06-05T06:57:21;4.90;89.10
59961;DHT22;55902;-37.980;-63.602;2023-06-05T06:59:48;4.90;89.20
59961;DHT22;55902;-37.980;-63.602;2023-06-05T07:02:17;4.90;90.00
59961;DHT22;55902;-37.980;-63.602;2023-06-05T07:04:45;5.00;90.00
59961;DHT22;55902;-37.980;-63.602;2023-06-05T07:07:17;5.00;89.50
59961;DHT22;55902;-37.980;-63.602;2023-06-05T07:09:45;5.00;90.00
59961;DHT22;55902;-37.980;-63.602;2023-06-05T07:12:14;5.00;89.30
59961;DHT22;55902;-37.980;-63.602;2023-06-05T07:14:41;5.00;90.20
59961;DHT22;55902;-37.980;-63.602;2023-06-05T07:17:09;4.90;90.10
59961;DHT22;55902;-37.980;-63.602;2023-06-05T07:19:36;4.90;90.20
59961;DHT22;55902;-37.980;-63.602;2023-06-05T07:22:06;4.90;90.80
59961;DHT22;55902;-37.980;-63.602;2023-06-05T07:24:34;4.80;90.60
59961;DHT22;55902;-37.980;-63.602;2023-06-05T07:27:03;4.80;91.10
59961;DHT22;55902;-37.980;-63.602;2023-06-05T07:29:31;4.80;90.70
59961;DHT22;55902;-37.980;-63.602;2023-06-05T07:31:59;4.80;90.60
59961;DHT22;55902;-37.980;-63.602;2023-06-05T07:34:26;4.80;90.70
59961;DHT22;55902;-37.980;-63.602;2023-06-05T07:36:54;4.70;90.80
59961;DHT22;55902;-37.980;-63.602;2023-06-05T07:39:24;4.70;90.80
59961;DHT22;55902;-37.980;-63.602;2023-06-05T07:41:51;4.70;91.00
59961;DHT22;55902;-37.980;-63.602;2023-06-05T07:44:20;4.60;91.20
59961;DHT22;55902;-37.980;-63.602;2023-06-05T07:46:51;4.60;91.80
59961;DHT22;55902;-37.980;-63.602;2023-06-05T07:49:18;4.60;91.90
59961;DHT22;55902;-37.980;-63.602;2023-06-05T07:51:46;4.60;91.60
59961;DHT22;55902;-37.980;-63.602;2023-06-05T07:54:15;4.70;91.70
59961;DHT22;55902;-37.980;-63.602;2023-06-05T07:56:43;4.60;91.90
59961;DHT22;55902;-37.980;-63.602;2023-06-05T07:59:10;4.60;92.30
59961;DHT22;55902;-37.980;-63.602;2023-06-05T08:01:40;4.60;92.00
59961;DHT22;55902;-37.980;-63.602;2023-06-05T08:04:09;4.60;92.20
59961;DHT22;55902;-37.980;-63.602;2023-06-05T08:06:39;4.60;92.60
59961;DHT22;55902;-37.980;-63.602;2023-06-05T08:09:06;4.60;92.50
59961;DHT22;55902;-37.980;-63.602;2023-06-05T08:11:38;4.60;92.60
59961;DHT22;55902;-37.980;-63.602;2023-06-05T08:14:05;4.60;92.70
59961;DHT22;55902;-37.980;-63.602;2023-06-05T08:16:33;4.60;93.20
59961;DHT22;55902;-37.980;-63.602;2023-06-05T08:19:00;4.50;93.40
59961;DHT22;55902;-37.980;-63.602;2023-06-05T08:21:28;4.60;93.40
59961;DHT22;55902;-37.980;-63.602;2023-06-05T08:23:55;4.50;93.50
59961;DHT22;55902;-37.980;-63.602;2023-06-05T08:26:22;4.50;93.70
59961;DHT22;55902;-37.980;-63.602;2023-06-05T08:28:49;4.40;93.90
59961;DHT22;55902;-37.980;-63.602;2023-06-05T08:31:16;4.40;94.00
59961;DHT22;55902;-37.980;-63.602;2023-06-05T08:33:44;4.40;93.90
59961;DHT22;55902;-37.980;-63.602;2023-06-05T08:36:11;4.40;94.10
59961;DHT22;55902;-37.980;-63.602;2023-06-05T08:38:38;4.40;94.40
59961;DHT22;55902;-37.980;-63.602;2023-06-05T08:41:06;4.40;94.30
59961;DHT22;55902;-37.980;-63.602;2023-06-05T08:43:39;4.40;94.40
59961;DHT22;55902;-37.980;-63.602;2023-06-05T08:46:11;4.30;94.60
59961;DHT22;55902;-37.980;-63.602;2023-06-05T08:48:46;4.30;94.70
59961;DHT22;55902;-37.980;-63.602;2023-06-05T08:51:16;4.30;94.60
59961;DHT22;55902;-37.980;-63.602;2023-06-05T08:53:57;4.30;95.20
59961;DHT22;55902;-37.980;-63.602;2023-06-05T08:56:25;4.20;95.30
59961;DHT22;55902;-37.980;-63.602;2023-06-05T08:58:53;4.20;95.50
59961;DHT22;55902;-37.980;-63.602;2023-06-05T09:01:21;4.20;95.70
59961;DHT22;55902;-37.980;-63.602;2023-06-05T09:03:48;4.20;95.90
59961;DHT22;55902;-37.980;-63.602;2023-06-05T09:06:15;4.20;95.80
59961;DHT22;55902;-37.980;-63.602;2023-06-05T09:08:42;4.30;95.70
59961;DHT22;55902;-37.980;-63.602;2023-06-05T09:11:30;4.30;95.70
59961;DHT22;55902;-37.980;-63.602;2023-06-05T09:14:00;4.30;95.70
59961;DHT22;55902;-37.980;-63.602;2023-06-05T09:16:43;4.30;95.60
59961;DHT22;55902;-37.980;-63.602;2023-06-05T09:19:11;4.30;95.60
59961;DHT22;55902;-37.980;-63.602;2023-06-05T09:21:39;4.30;96.00
59961;DHT22;55902;-37.980;-63.602;2023-06-05T09:29:28;4.40;95.40
59961;DHT22;55902;-37.980;-63.602;2023-06-05T09:31:57;4.40;95.70
59961;DHT22;55902;-37.980;-63.602;2023-06-05T09:34:27;4.40;96.10
59961;DHT22;55902;-37.980;-63.602;2023-06-05T09:36:56;4.40;96.20
59961;DHT22;55902;-37.980;-63.602;2023-06-05T09:39:24;4.40;95.60
59961;DHT22;55902;-37.980;-63.602;2023-06-05T09:41:55;4.50;95.20
59961;DHT22;55902;-37.980;-63.602;2023-06-05T09:44:23;4.50;95.70
59961;DHT22;55902;-37.980;-63.602;2023-06-05T09:49:32;4.50;95.60
59961;DHT22;55902;-37.980;-63.602;2023-06-05T09:52:00;4.50;95.80
59961;DHT22;55902;-37.980;-63.602;2023-06-05T09:54:29;4.40;96.00
59961;DHT22;55902;-37.980;-63.602;2023-06-05T09:57:04;4.40;96.00
59961;DHT22;55902;-37.980;-63.602;2023-06-05T09:59:42;4.40;95.80
59961;DHT22;55902;-37.980;-63.602;2023-06-05T10:02:12;4.30;96.10
59961;DHT22;55902;-37.980;-63.602;2023-06-05T10:04:49;4.30;96.30
59961;DHT22;55902;-37.980;-63.602;2023-06-05T10:07:18;4.20;96.20
59961;DHT22;55902;-37.980;-63.602;2023-06-05T10:09:49;4.10;96.40
59961;DHT22;55902;-37.980;-63.602;2023-06-05T10:12:17;4.10;96.40
59961;DHT22;55902;-37.980;-63.602;2023-06-05T10:14:46;4.00;96.40
59961;DHT22;55902;-37.980;-63.602;2023-06-05T10:17:15;4.00;96.60
59961;DHT22;55902;-37.980;-63.602;2023-06-05T10:19:44;4.00;96.50
59961;DHT22;55902;-37.980;-63.602;2023-06-05T10:22:11;4.00;96.70
59961;DHT22;55902;-37.980;-63.602;2023-06-05T10:24:46;3.90;96.60
59961;DHT22;55902;-37.980;-63.602;2023-06-05T10:35:50;4.10;96.30
59961;DHT22;55902;-37.980;-63.602;2023-06-05T10:38:22;4.10;96.40
59961;DHT22;55902;-37.980;-63.602;2023-06-05T10:40:55;4.10;96.80
59961;DHT22;55902;-37.980;-63.602;2023-06-05T10:43:48;4.10;96.50
59961;DHT22;55902;-37.980;-63.602;2023-06-05T10:46:31;4.10;96.70
59961;DHT22;55902;-37.980;-63.602;2023-06-05T10:49:14;4.10;96.70
59961;DHT22;55902;-37.980;-63.602;2023-06-05T10:51:46;4.10;96.80
59961;DHT22;55902;-37.980;-63.602;2023-06-05T10:56:58;4.00;96.90
59961;DHT22;55902;-37.980;-63.602;2023-06-05T10:59:33;4.00;97.10
59961;DHT22;55902;-37.980;-63.602;2023-06-05T11:07:27;4.00;97.40
59961;DHT22;55902;-37.980;-63.602;2023-06-05T11:10:12;4.00;97.40
59961;DHT22;55902;-37.980;-63.602;2023-06-05T11:12:59;4.00;97.50
59961;DHT22;55902;-37.980;-63.602;2023-06-05T11:15:34;3.90;97.40
59961;DHT22;55902;-37.980;-63.602;2023-06-05T11:18:31;3.90;97.60
59961;DHT22;55902;-37.980;-63.602;2023-06-05T11:20:59;3.80;97.70
59961;DHT22;55902;-37.980;-63.602;2023-06-05T11:23:27;3.80;97.90
59961;DHT22;55902;-37.980;-63.602;2023-06-05T11:25:56;3.80;97.70
59961;DHT22;55902;-37.980;-63.602;2023-06-05T11:28:41;3.80;98.10
59961;DHT22;55902;-37.980;-63.602;2023-06-05T11:31:08;3.80;97.80
59961;DHT22;55902;-37.980;-63.602;2023-06-05T11:33:36;3.90;97.80
59961;DHT22;55902;-37.980;-63.602;2023-06-05T11:36:05;3.90;98.00
59961;DHT22;55902;-37.980;-63.602;2023-06-05T11:38:38;3.90;98.00
59961;DHT22;55902;-37.980;-63.602;2023-06-05T11:41:08;4.00;97.90
59961;DHT22;55902;-37.980;-63.602;2023-06-05T11:44:01;4.10;97.70
59961;DHT22;55902;-37.980;-63.602;2023-06-05T11:46:51;4.20;97.80
59961;DHT22;55902;-37.980;-63.602;2023-06-05T11:49:28;4.30;97.70
59961;DHT22;55902;-37.980;-63.602;2023-06-05T11:51:56;4.40;97.30
59961;DHT22;55902;-37.980;-63.602;2023-06-05T11:54:27;4.40;97.20
59961;DHT22;55902;-37.980;-63.602;2023-06-05T11:57:01;4.50;97.20
59961;DHT22;55902;-37.980;-63.602;2023-06-05T11:59:36;4.60;97.10
59961;DHT22;55902;-37.980;-63.602;2023-06-05T12:02:04;4.80;97.00
59961;DHT22;55902;-37.980;-63.602;2023-06-05T12:04:32;4.90;96.70
59961;DHT22;55902;-37.980;-63.602;2023-06-05T12:07:00;5.10;96.50
59961;DHT22;55902;-37.980;-63.602;2023-06-05T12:09:29;5.30;96.10
59961;DHT22;55902;-37.980;-63.602;2023-06-05T12:12:09;5.40;95.90
59961;DHT22;55902;-37.980;-63.602;2023-06-05T12:14:36;5.50;95.70
59961;DHT22;55902;-37.980;-63.602;2023-06-05T12:17:10;5.70;95.50
59961;DHT22;55902;-37.980;-63.602;2023-06-05T12:19:38;5.80;95.40
59961;DHT22;55902;-37.980;-63.602;2023-06-05T12:22:10;5.80;95.20
59961;DHT22;55902;-37.980;-63.602;2023-06-05T12:24:37;6.00;95.00
59961;DHT22;55902;-37.980;-63.602;2023-06-05T12:27:14;6.10;94.80
59961;DHT22;55902;-37.980;-63.602;2023-06-05T12:30:08;6.20;94.50
59961;DHT22;55902;-37.980;-63.602;2023-06-05T12:32:36;6.40;94.30
59961;DHT22;55902;-37.980;-63.602;2023-06-05T12:35:05;6.50;94.00
59961;DHT22;55902;-37.980;-63.602;2023-06-05T12:37:44;6.60;93.90
59961;DHT22;55902;-37.980;-63.602;2023-06-05T12:40:14;6.70;93.60
59961;DHT22;55902;-37.980;-63.602;2023-06-05T12:42:44;6.80;93.50
59961;DHT22;55902;-37.980;-63.602;2023-06-05T12:45:11;6.90;93.50
59961;DHT22;55902;-37.980;-63.602;2023-06-05T12:47:39;7.00;93.40
59961;DHT22;55902;-37.980;-63.602;2023-06-05T12:50:08;7.10;93.40
59961;DHT22;55902;-37.980;-63.602;2023-06-05T12:52:41;7.20;93.20
59961;DHT22;55902;-37.980;-63.602;2023-06-05T12:55:10;7.20;93.30
59961;DHT22;55902;-37.980;-63.602;2023-06-05T12:57:38;7.30;93.20
59961;DHT22;55902;-37.980;-63.602;2023-06-05T13:00:09;7.40;93.10
59961;DHT22;55902;-37.980;-63.602;2023-06-05T13:02:43;7.50;93.00
59961;DHT22;55902;-37.980;-63.602;2023-06-05T13:05:15;7.50;93.30
59961;DHT22;55902;-37.980;-63.602;2023-06-05T13:07:42;7.60;93.00
59961;DHT22;55902;-37.980;-63.602;2023-06-05T13:10:11;7.60;93.00
59961;DHT22;55902;-37.980;-63.602;2023-06-05T13:12:39;7.70;93.00
59961;DHT22;55902;-37.980;-63.602;2023-06-05T13:15:06;7.70;92.90
59961;DHT22;55902;-37.980;-63.602;2023-06-05T13:17:34;7.80;93.00
59961;DHT22;55902;-37.980;-63.602;2023-06-05T13:20:05;7.90;93.00
59961;DHT22;55902;-37.980;-63.602;2023-06-05T13:22:38;8.00;92.80
59961;DHT22;55902;-37.980;-63.602;2023-06-05T13:25:09;8.10;92.70
59961;DHT22;55902;-37.980;-63.602;2023-06-05T13:27:37;8.20;92.40
59961;DHT22;55902;-37.980;-63.602;2023-06-05T13:30:04;8.30;92.30
59961;DHT22;55902;-37.980;-63.602;2023-06-05T13:32:36;8.50;92.60
59961;DHT22;55902;-37.980;-63.602;2023-06-05T13:35:08;8.60;92.20
59961;DHT22;55902;-37.980;-63.602;2023-06-05T13:37:42;8.70;92.10
59961;DHT22;55902;-37.980;-63.602;2023-06-05T13:40:19;8.80;91.90
59961;DHT22;55902;-37.980;-63.602;2023-06-05T13:42:46;9.10;91.80
59961;DHT22;55902;-37.980;-63.602;2023-06-05T13:45:14;9.20;91.50
59961;DHT22;55902;-37.980;-63.602;2023-06-05T13:48:01;9.40;91.10
59961;DHT22;55902;-37.980;-63.602;2023-06-05T13:50:30;9.50;90.80
59961;DHT22;55902;-37.980;-63.602;2023-06-05T13:52:57;9.60;90.70
59961;DHT22;55902;-37.980;-63.602;2023-06-05T13:55:24;9.70;90.70
59961;DHT22;55902;-37.980;-63.602;2023-06-05T13:57:51;9.80;90.60
59961;DHT22;55902;-37.980;-63.602;2023-06-05T14:00:18;9.90;90.30
59961;DHT22;55902;-37.980;-63.602;2023-06-05T14:02:46;10.00;90.40
59961;DHT22;55902;-37.980;-63.602;2023-06-05T14:05:13;10.10;90.40
59961;DHT22;55902;-37.980;-63.602;2023-06-05T14:07:42;10.30;89.80
59961;DHT22;55902;-37.980;-63.602;2023-06-05T14:10:10;10.40;89.00
59961;DHT22;55902;-37.980;-63.602;2023-06-05T14:12:37;10.60;87.90
59961;DHT22;55902;-37.980;-63.602;2023-06-05T14:15:07;10.70;87.30
59961;DHT22;55902;-37.980;-63.602;2023-06-05T14:17:35;10.80;84.70
59961;DHT22;55902;-37.980;-63.602;2023-06-05T14:20:03;10.90;83.90
59961;DHT22;55902;-37.980;-63.602;2023-06-05T14:22:30;10.90;82.30
59961;DHT22;55902;-37.980;-63.602;2023-06-05T14:24:58;11.00;81.90
59961;DHT22;55902;-37.980;-63.602;2023-06-05T14:27:26;11.00;80.60
59961;DHT22;55902;-37.980;-63.602;2023-06-05T14:29:53;11.10;82.00
59961;DHT22;55902;-37.980;-63.602;2023-06-05T14:32:21;11.10;79.80
59961;DHT22;55902;-37.980;-63.602;2023-06-05T14:34:48;11.20;79.70
59961;DHT22;55902;-37.980;-63.602;2023-06-05T14:37:15;11.10;79.10
59961;DHT22;55902;-37.980;-63.602;2023-06-05T14:40:00;11.10;79.60
59961;DHT22;55902;-37.980;-63.602;2023-06-05T14:42:29;11.30;79.80
59961;DHT22;55902;-37.980;-63.602;2023-06-05T14:44:56;11.30;79.00
59961;DHT22;55902;-37.980;-63.602;2023-06-05T14:47:23;11.40;79.40
59961;DHT22;55902;-37.980;-63.602;2023-06-05T14:49:51;11.50;79.90
59961;DHT22;55902;-37.980;-63.602;2023-06-05T14:52:18;11.50;80.10
59961;DHT22;55902;-37.980;-63.602;2023-06-05T14:54:48;11.50;79.80
59961;DHT22;55902;-37.980;-63.602;2023-06-05T14:57:26;11.70;79.90
59961;DHT22;55902;-37.980;-63.602;2023-06-05T14:59:54;12.00;78.80
59961;DHT22;55902;-37.980;-63.602;2023-06-05T15:02:22;12.20;78.20
59961;DHT22;55902;-37.980;-63.602;2023-06-05T15:04:49;12.10;78.30
59961;DHT22;55902;-37.980;-63.602;2023-06-05T15:07:20;12.10;79.20
59961;DHT22;55902;-37.980;-63.602;2023-06-05T15:09:47;12.30;78.80
59961;DHT22;55902;-37.980;-63.602;2023-06-05T15:12:15;12.50;77.50
59961;DHT22;55902;-37.980;-63.602;2023-06-05T15:14:46;12.90;77.00
59961;DHT22;55902;-37.980;-63.602;2023-06-05T15:17:14;13.00;76.60
59961;DHT22;55902;-37.980;-63.602;2023-06-05T15:19:45;13.00;75.20
59961;DHT22;55902;-37.980;-63.602;2023-06-05T15:22:12;13.10;75.80
59961;DHT22;55902;-37.980;-63.602;2023-06-05T15:24:40;13.10;76.10
59961;DHT22;55902;-37.980;-63.602;2023-06-05T15:27:07;13.00;75.80
59961;DHT22;55902;-37.980;-63.602;2023-06-05T15:29:43;13.10;77.30
59961;DHT22;55902;-37.980;-63.602;2023-06-05T15:32:12;13.10;76.20
59961;DHT22;55902;-37.980;-63.602;2023-06-05T15:35:02;13.10;76.60
59961;DHT22;55902;-37.980;-63.602;2023-06-05T15:37:54;13.10;77.40
59961;DHT22;55902;-37.980;-63.602;2023-06-05T15:40:21;13.20;77.50
59961;DHT22;55902;-37.980;-63.602;2023-06-05T15:43:07;13.30;76.70
59961;DHT22;55902;-37.980;-63.602;2023-06-05T15:45:38;13.50;75.80
59961;DHT22;55902;-37.980;-63.602;2023-06-05T15:48:08;13.60;75.10
59961;DHT22;55902;-37.980;-63.602;2023-06-05T15:50:35;13.50;75.10
59961;DHT22;55902;-37.980;-63.602;2023-06-05T15:53:03;13.50;74.10
59961;DHT22;55902;-37.980;-63.602;2023-06-05T15:55:30;13.40;73.80
59961;DHT22;55902;-37.980;-63.602;2023-06-05T15:57:58;13.50;74.00
59961;DHT22;55902;-37.980;-63.602;2023-06-05T16:00:25;13.50;74.40
59961;DHT22;55902;-37.980;-63.602;2023-06-05T16:02:52;13.70;74.40
59961;DHT22;55902;-37.980;-63.602;2023-06-05T16:05:20;13.80;73.90
59961;DHT22;55902;-37.980;-63.602;2023-06-05T16:07:48;13.80;73.50
59961;DHT22;55902;-37.980;-63.602;2023-06-05T16:10:16;13.70;73.80
59961;DHT22;55902;-37.980;-63.602;2023-06-05T16:12:44;13.70;73.60
59961;DHT22;55902;-37.980;-63.602;2023-06-05T16:15:12;13.90;74.40
59961;DHT22;55902;-37.980;-63.602;2023-06-05T16:17:43;14.10;73.50
59961;DHT22;55902;-37.980;-63.602;2023-06-05T16:20:13;14.40;73.70
59961;DHT22;55902;-37.980;-63.602;2023-06-05T16:22:41;14.60;72.30
59961;DHT22;55902;-37.980;-63.602;2023-06-05T16:25:09;14.50;72.10